createdAt,value
2022-10-28T00:02:44.825Z,2.67
2022-10-28T00:05:34.497Z,2.58
2022-10-28T00:08:20.277Z,2.35
2022-10-28T00:11:12.528Z,2.38
2022-10-28T00:16:44.214Z,2.83
2022-10-28T00:19:30.022Z,2.63
2022-10-28T00:22:15.418Z,2.97
2022-10-28T00:25:00.627Z,3.97
2022-10-28T00:27:45.846Z,3.05
2022-10-28T00:33:21.503Z,2.03
2022-10-28T00:36:13.746Z,3.00
2022-10-28T00:39:00.145Z,2.80
2022-10-28T00:41:50.085Z,2.80
2022-10-28T00:44:55.157Z,3.17
2022-10-28T00:47:52.743Z,3.35
2022-10-28T00:50:52.039Z,3.00
2022-10-28T00:53:39.841Z,4.15
2022-10-28T00:56:28.333Z,3.47
2022-10-28T00:59:29.844Z,2.88
2022-10-28T01:02:15.873Z,3.45
2022-10-28T01:05:01.639Z,2.55
2022-10-28T01:07:47.143Z,3.35
2022-10-28T01:10:53.096Z,3.13
2022-10-28T01:14:06.173Z,2.85
2022-10-28T01:17:13.313Z,3.40
2022-10-28T01:20:13.994Z,3.17
2022-10-28T01:23:25.275Z,3.85
2022-10-28T01:26:40.767Z,3.50
2022-10-28T01:29:43.936Z,4.28
2022-10-28T01:33:00.089Z,3.38
2022-10-28T01:36:07.794Z,4.05
2022-10-28T01:39:16.322Z,3.72
2022-10-28T01:42:26.796Z,3.92
2022-10-28T01:45:20.907Z,3.13
2022-10-28T01:48:17.871Z,3.20
2022-10-28T01:51:40.546Z,2.50
2022-10-28T01:54:29.728Z,6.07
2022-10-28T01:57:18.312Z,2.67
2022-10-28T02:00:05.149Z,3.67
2022-10-28T02:02:57.958Z,3.60
2022-10-28T02:05:47.731Z,3.58
2022-10-28T02:08:57.865Z,2.70
2022-10-28T02:11:46.377Z,3.50
2022-10-28T02:15:02.768Z,3.28
2022-10-28T02:18:00.361Z,3.55
2022-10-28T02:20:55.315Z,2.55
2022-10-28T02:23:53.469Z,3.58
2022-10-28T02:26:44.715Z,2.20
2022-10-28T02:29:36.870Z,3.15
2022-10-28T02:32:27.824Z,3.42
2022-10-28T02:35:27.258Z,3.55
2022-10-28T02:38:18.452Z,3.35
2022-10-28T02:41:11.427Z,3.65
2022-10-28T02:44:03.082Z,4.07
2022-10-28T02:46:50.539Z,3.28
2022-10-28T02:49:40.059Z,2.80
2022-10-28T02:52:28.385Z,3.08
2022-10-28T02:55:13.899Z,2.63
2022-10-28T02:58:00.136Z,3.25
2022-10-28T03:00:46.713Z,2.90
2022-10-28T03:03:32.085Z,3.45
2022-10-28T03:06:18.324Z,3.85
2022-10-28T03:09:03.727Z,2.58
2022-10-28T03:11:49.166Z,2.88
2022-10-28T03:14:34.665Z,2.28
2022-10-28T03:17:19.961Z,2.72
2022-10-28T03:20:05.910Z,2.05
2022-10-28T03:22:51.851Z,2.65
2022-10-28T03:25:37.751Z,2.25
2022-10-28T03:28:23.363Z,2.13
2022-10-28T03:31:08.793Z,2.95
2022-10-28T03:33:54.289Z,2.95
2022-10-28T03:36:39.638Z,3.25
2022-10-28T03:39:25.024Z,3.25
2022-10-28T03:42:10.421Z,3.45
2022-10-28T03:44:55.647Z,2.50
2022-10-28T03:47:41.121Z,2.47
2022-10-28T03:50:26.748Z,2.63
2022-10-28T03:53:12.164Z,2.65
2022-10-28T03:56:00.436Z,3.47
2022-10-28T03:58:48.695Z,2.47
2022-10-28T04:01:34.135Z,3.25
2022-10-28T04:04:20.300Z,2.20
2022-10-28T04:07:05.611Z,2.10
2022-10-28T04:09:51.617Z,3.85
2022-10-28T04:12:37.098Z,2.72
2022-10-28T04:15:22.770Z,3.05
2022-10-28T04:18:08.476Z,3.13
2022-10-28T04:20:54.031Z,3.17
2022-10-28T04:23:39.367Z,3.13
2022-10-28T04:26:25.602Z,3.05
2022-10-28T04:29:10.994Z,2.83
2022-10-28T04:31:56.314Z,4.30
2022-10-28T04:34:41.627Z,3.15
2022-10-28T04:37:27.043Z,1.98
2022-10-28T04:40:12.797Z,0.85
2022-10-28T04:42:58.495Z,0.25
2022-10-28T04:45:45.101Z,0.20
2022-10-28T04:48:30.809Z,0.30
2022-10-28T04:51:16.213Z,0.00
2022-10-28T04:54:01.694Z,0.10
2022-10-28T04:56:47.156Z,0.10
2022-10-28T04:59:32.710Z,0.00
2022-10-28T05:02:18.374Z,0.10
2022-10-28T05:05:04.763Z,0.20
2022-10-28T05:07:50.487Z,0.10
2022-10-28T05:10:35.813Z,0.20
2022-10-28T05:13:21.219Z,0.10
2022-10-28T05:16:07.260Z,0.25
2022-10-28T05:18:53.020Z,0.20
2022-10-28T05:21:38.349Z,0.20
2022-10-28T05:24:23.775Z,0.10
2022-10-28T05:27:09.315Z,0.15
2022-10-28T05:29:54.626Z,0.10
2022-10-28T05:32:40.229Z,0.20
2022-10-28T05:35:25.650Z,0.10
2022-10-28T05:38:11.092Z,0.20
2022-10-28T05:40:56.980Z,0.20
2022-10-28T05:43:42.271Z,0.20
2022-10-28T05:46:27.665Z,0.30
2022-10-28T05:49:13.178Z,0.20
2022-10-28T05:51:58.716Z,0.20
2022-10-28T05:54:44.219Z,0.20
2022-10-28T05:57:29.657Z,0.20
2022-10-28T06:00:16.933Z,0.43
2022-10-28T06:03:10.952Z,0.30
2022-10-28T06:05:57.582Z,0.28
2022-10-28T06:08:42.907Z,0.10
2022-10-28T06:11:26.723Z,0.30
2022-10-28T06:14:12.072Z,0.22
2022-10-28T06:16:57.935Z,0.20
2022-10-28T06:19:43.402Z,0.15
2022-10-28T06:22:28.661Z,0.30
2022-10-28T06:25:14.197Z,0.30
2022-10-28T06:28:01.355Z,0.30
2022-10-28T06:30:46.640Z,0.20
2022-10-28T06:33:32.478Z,0.47
2022-10-28T06:36:18.007Z,0.57
2022-10-28T06:39:04.232Z,0.30
2022-10-28T06:41:49.759Z,0.40
2022-10-28T06:44:34.917Z,0.40
2022-10-28T06:47:21.834Z,0.10
2022-10-28T06:50:07.382Z,0.30
2022-10-28T06:52:56.475Z,0.20
2022-10-28T06:55:41.994Z,0.50
2022-10-28T06:58:27.506Z,0.28
2022-10-28T07:01:13.153Z,0.20
2022-10-28T07:03:58.459Z,0.28
2022-10-28T07:06:45.455Z,0.45
2022-10-28T07:09:33.708Z,0.52
2022-10-28T07:12:19.186Z,0.40
2022-10-28T07:15:05.158Z,0.30
2022-10-28T07:17:58.108Z,0.30
2022-10-28T07:20:43.593Z,0.20
2022-10-28T07:23:31.686Z,0.30
2022-10-28T07:26:17.181Z,0.30
2022-10-28T07:29:02.591Z,0.40
2022-10-28T07:31:47.939Z,0.20
2022-10-28T07:34:33.379Z,0.40
2022-10-28T07:37:18.657Z,0.80
2022-10-28T07:40:04.444Z,1.00
2022-10-28T07:42:49.849Z,0.52
2022-10-28T07:45:36.315Z,0.63
2022-10-28T07:48:21.872Z,0.73
2022-10-28T07:51:08.892Z,0.50
2022-10-28T07:53:56.603Z,0.75
2022-10-28T07:56:42.173Z,0.70
2022-10-28T07:59:27.712Z,0.68
2022-10-28T08:02:18.872Z,0.57
2022-10-28T08:05:05.089Z,0.52
2022-10-28T08:07:50.340Z,0.70
2022-10-28T08:10:35.737Z,0.70
2022-10-28T08:13:21.429Z,0.70
2022-10-28T08:16:08.302Z,0.40
2022-10-28T08:18:53.926Z,0.30
2022-10-28T08:21:39.467Z,0.30
2022-10-28T08:24:24.806Z,0.40
2022-10-28T08:27:10.164Z,0.40
2022-10-28T08:29:55.721Z,0.57
2022-10-28T08:32:41.130Z,0.47
2022-10-28T08:35:26.475Z,0.60
2022-10-28T08:38:11.786Z,0.40
2022-10-28T08:41:15.465Z,0.70
2022-10-28T08:44:28.806Z,0.40
2022-10-28T08:47:41.808Z,0.40
2022-10-28T08:50:32.030Z,0.43
2022-10-28T08:53:44.953Z,0.43
2022-10-28T08:56:58.846Z,0.30
2022-10-28T08:59:45.844Z,0.52
2022-10-28T09:02:47.264Z,0.80
2022-10-28T09:05:33.037Z,0.52
2022-10-28T09:08:23.642Z,0.32
2022-10-28T09:11:47.531Z,0.60
2022-10-28T09:14:50.326Z,0.82
2022-10-28T09:20:55.805Z,0.40
2022-10-28T09:23:53.313Z,0.47
2022-10-28T09:26:41.794Z,0.57
2022-10-28T09:29:52.022Z,0.63
2022-10-28T09:32:58.601Z,0.73
2022-10-28T09:35:47.353Z,1.45
2022-10-28T09:38:38.056Z,1.33
2022-10-28T09:41:31.908Z,0.47
2022-10-28T09:44:28.652Z,0.60
2022-10-28T09:47:23.750Z,0.57
2022-10-28T09:50:31.618Z,0.80
2022-10-28T09:53:36.282Z,0.63
2022-10-28T09:56:23.413Z,1.00
2022-10-28T09:59:15.094Z,1.02
2022-10-28T10:02:00.961Z,0.60
2022-10-28T10:04:46.637Z,0.90
2022-10-28T10:07:36.976Z,1.35
2022-10-28T10:10:25.647Z,0.82
2022-10-28T10:13:13.540Z,0.65
2022-10-28T10:16:14.232Z,1.00
2022-10-28T10:19:03.218Z,1.00
2022-10-28T10:21:51.591Z,0.82
2022-10-28T10:24:37.336Z,1.17
2022-10-28T10:27:23.164Z,1.70
2022-10-28T10:30:17.492Z,0.82
2022-10-28T10:33:03.797Z,0.63
2022-10-28T10:36:02.999Z,0.60
2022-10-28T10:38:54.439Z,1.10
2022-10-28T10:41:42.354Z,0.85
2022-10-28T10:44:35.689Z,0.68
2022-10-28T10:47:21.361Z,0.95
2022-10-28T10:53:32.593Z,0.65
2022-10-28T10:56:27.610Z,1.38
2022-10-28T10:59:29.399Z,1.27
2022-10-28T11:02:24.221Z,0.73
2022-10-28T11:05:10.786Z,1.58
2022-10-28T11:07:58.732Z,0.70
2022-10-28T11:10:44.613Z,1.10
2022-10-28T11:13:30.988Z,0.90
2022-10-28T11:16:23.078Z,0.60
2022-10-28T11:19:36.187Z,0.93
2022-10-28T11:22:47.637Z,1.00
2022-10-28T11:25:38.538Z,1.17
2022-10-28T11:28:48.383Z,1.05
2022-10-28T11:32:05.355Z,1.30
2022-10-28T11:34:54.079Z,1.20
2022-10-28T11:38:12.768Z,0.70
2022-10-28T11:41:22.073Z,1.23
2022-10-28T11:44:41.610Z,0.80
2022-10-28T11:47:53.743Z,1.60
2022-10-28T11:51:10.362Z,1.10
2022-10-28T11:54:17.304Z,1.30
2022-10-28T11:57:10.883Z,1.02
2022-10-28T12:00:24.290Z,1.00
2022-10-28T12:03:18.887Z,0.50
2022-10-28T12:06:36.843Z,1.38
2022-10-28T12:09:38.390Z,1.10
2022-10-28T12:13:01.993Z,0.93
2022-10-28T12:16:02.295Z,1.08
2022-10-28T12:19:00.200Z,1.40
2022-10-28T12:22:23.266Z,1.13
2022-10-28T12:25:14.698Z,0.75
2022-10-28T12:28:06.254Z,1.92
2022-10-28T12:30:53.792Z,1.40
2022-10-28T12:33:46.863Z,1.02
2022-10-28T12:36:41.724Z,1.17
2022-10-28T12:39:56.909Z,1.27
2022-10-28T12:42:48.045Z,0.90
2022-10-28T12:45:33.573Z,1.52
2022-10-28T12:48:32.139Z,1.70
2022-10-28T12:51:36.442Z,1.80
2022-10-28T12:54:25.539Z,1.65
2022-10-28T12:57:17.346Z,1.73
2022-10-28T13:00:17.052Z,1.60
2022-10-28T13:03:11.667Z,1.05
2022-10-28T13:06:12.281Z,1.13
2022-10-28T13:09:09.756Z,2.40
2022-10-28T13:12:39.804Z,1.33
2022-10-28T13:15:36.304Z,1.15
2022-10-28T13:18:30.700Z,1.85
2022-10-28T13:21:51.204Z,1.65
2022-10-28T13:24:49.544Z,1.38
2022-10-28T13:30:23.036Z,1.33
2022-10-28T13:33:16.822Z,2.03
2022-10-28T13:36:16.173Z,1.80
2022-10-28T13:39:06.370Z,1.38
2022-10-28T13:42:14.979Z,1.42
2022-10-28T13:45:02.436Z,1.48
2022-10-28T13:47:47.755Z,2.08
2022-10-28T13:50:34.205Z,1.80
2022-10-28T13:53:28.885Z,1.70
2022-10-28T13:56:19.996Z,2.38
2022-10-28T13:59:29.448Z,1.83
2022-10-28T14:02:38.648Z,1.92
2022-10-28T14:05:47.408Z,1.80
2022-10-28T14:08:40.896Z,1.83
2022-10-28T14:11:32.514Z,1.83
2022-10-28T14:14:18.060Z,2.00
2022-10-28T14:17:04.292Z,2.17
2022-10-28T14:19:52.095Z,1.80
2022-10-28T14:22:37.881Z,1.58
2022-10-28T14:25:43.625Z,2.80
2022-10-28T14:28:29.295Z,1.83
2022-10-28T14:31:15.819Z,1.83
2022-10-28T14:34:01.251Z,1.75
2022-10-28T14:36:58.979Z,1.55
2022-10-28T14:40:23.697Z,2.08
2022-10-28T14:43:33.867Z,2.85
2022-10-28T14:46:25.536Z,1.73
2022-10-28T14:49:31.125Z,1.25
2022-10-28T14:52:19.418Z,1.33
2022-10-28T14:55:08.452Z,1.80
2022-10-28T14:57:54.405Z,1.60
2022-10-28T15:00:49.737Z,1.65
2022-10-28T15:03:35.761Z,2.00
2022-10-28T15:06:29.085Z,1.45
2022-10-28T15:09:23.606Z,1.95
2022-10-28T15:12:17.720Z,1.63
2022-10-28T15:15:03.030Z,2.28
2022-10-28T15:17:49.567Z,1.95
2022-10-28T15:20:36.225Z,1.70
2022-10-28T15:23:24.993Z,1.85
2022-10-28T15:26:16.617Z,1.52
2022-10-28T15:29:02.005Z,1.90
2022-10-28T15:32:07.672Z,2.00
2022-10-28T15:34:53.427Z,1.92
2022-10-28T15:37:38.970Z,1.55
2022-10-28T15:40:27.499Z,3.03
2022-10-28T15:43:24.025Z,2.47
2022-10-28T15:46:15.210Z,3.67
2022-10-28T15:49:02.180Z,2.33
2022-10-28T15:52:19.168Z,2.05
2022-10-28T15:55:21.774Z,2.50
2022-10-28T15:58:18.027Z,2.45
2022-10-28T16:01:27.167Z,2.45
2022-10-28T16:04:18.787Z,1.90
2022-10-28T16:07:09.078Z,2.00
2022-10-28T16:09:54.411Z,2.30
2022-10-28T16:12:45.414Z,3.33
2022-10-28T16:15:32.226Z,3.15
2022-10-28T16:18:17.577Z,2.17
2022-10-28T16:21:04.812Z,2.90
2022-10-28T16:23:56.422Z,4.63
2022-10-28T16:26:41.697Z,2.80
2022-10-28T16:29:26.860Z,2.13
2022-10-28T16:32:13.721Z,2.40
2022-10-28T16:34:59.162Z,2.13
2022-10-28T16:37:46.600Z,2.05
2022-10-28T16:40:51.848Z,2.28
2022-10-28T16:43:37.777Z,2.28
2022-10-28T16:46:23.413Z,1.60
2022-10-28T16:49:08.590Z,3.10
2022-10-28T16:51:54.609Z,2.13
2022-10-28T16:54:40.294Z,2.63
2022-10-28T16:57:26.769Z,2.47
2022-10-28T17:00:16.043Z,2.42
2022-10-28T17:03:01.413Z,2.28
2022-10-28T17:05:46.898Z,2.67
2022-10-28T17:09:00.663Z,2.63
2022-10-28T17:11:37.638Z,3.13
2022-10-28T17:14:22.999Z,2.67
2022-10-28T17:17:09.207Z,2.97
2022-10-28T17:19:54.817Z,3.65
2022-10-28T17:22:40.973Z,4.00
2022-10-28T17:25:27.347Z,3.05
2022-10-28T17:28:13.035Z,3.17
2022-10-28T17:31:03.647Z,2.25
2022-10-28T17:33:53.348Z,1.30
2022-10-28T17:36:39.088Z,3.20
2022-10-28T17:39:26.503Z,2.30
2022-10-28T17:42:12.256Z,2.85
2022-10-28T17:44:57.619Z,2.55
2022-10-28T17:47:43.033Z,2.42
2022-10-28T17:50:28.714Z,3.60
2022-10-28T17:53:14.768Z,3.78
2022-10-28T17:56:03.941Z,2.97
2022-10-28T17:58:52.459Z,3.72
2022-10-28T18:01:38.233Z,4.75
2022-10-28T18:04:26.535Z,3.92
2022-10-28T18:07:12.000Z,6.00
2022-10-28T18:09:57.356Z,7.07
2022-10-28T18:12:42.945Z,2.83
2022-10-28T18:15:28.310Z,2.97
2022-10-28T18:18:14.782Z,7.43
2022-10-28T18:21:00.760Z,3.88
2022-10-28T18:23:54.517Z,5.07
2022-10-28T18:26:40.179Z,4.30
2022-10-28T18:29:26.243Z,3.90
2022-10-28T18:32:12.197Z,5.88
2022-10-28T18:34:57.802Z,3.58
2022-10-28T18:37:43.309Z,2.88
2022-10-28T18:40:28.651Z,3.40
2022-10-28T18:43:14.719Z,2.88
2022-10-28T18:46:04.656Z,2.78
2022-10-28T18:48:50.143Z,2.65
2022-10-28T18:51:36.601Z,3.03
2022-10-28T18:54:22.323Z,3.03
2022-10-28T18:57:07.693Z,4.57
2022-10-28T19:02:58.302Z,3.15
2022-10-28T19:05:43.748Z,2.90
2022-10-28T19:08:29.369Z,3.13
2022-10-28T19:11:14.912Z,2.60
2022-10-28T19:14:02.754Z,3.03
2022-10-28T19:16:48.377Z,3.10
2022-10-28T19:19:38.356Z,3.40
2022-10-28T19:22:25.148Z,5.75
2022-10-28T19:25:10.691Z,4.13
2022-10-28T19:27:57.837Z,5.80
2022-10-28T19:30:43.289Z,5.90
2022-10-28T19:33:30.570Z,4.70
2022-10-28T19:36:24.565Z,3.70
2022-10-28T19:39:10.258Z,3.58
2022-10-28T19:41:55.632Z,3.13
2022-10-28T19:44:40.909Z,3.38
2022-10-28T19:47:26.418Z,3.72
2022-10-28T19:50:12.072Z,6.50
2022-10-28T19:52:57.342Z,13.25
2022-10-28T19:55:42.725Z,6.70
2022-10-28T19:58:29.747Z,3.17
2022-10-28T20:01:15.548Z,2.88
2022-10-28T20:04:01.718Z,2.75
2022-10-28T20:06:47.363Z,3.15
2022-10-28T20:09:32.623Z,3.95
2022-10-28T20:12:17.979Z,4.07
2022-10-28T20:15:03.777Z,4.47
2022-10-28T20:17:49.046Z,5.45
2022-10-28T20:20:35.104Z,9.13
2022-10-28T20:23:20.724Z,6.53
2022-10-28T20:26:07.027Z,5.30
2022-10-28T20:28:52.390Z,3.92
2022-10-28T20:31:39.151Z,6.68
2022-10-28T20:34:24.575Z,5.97
2022-10-28T20:37:09.914Z,3.55
2022-10-28T20:39:57.767Z,4.40
2022-10-28T20:42:44.446Z,4.80
2022-10-28T20:45:29.863Z,2.42
2022-10-28T20:48:15.355Z,2.13
2022-10-28T20:51:02.373Z,3.25
2022-10-28T20:53:48.095Z,2.60
2022-10-28T20:56:36.441Z,2.47
2022-10-28T20:59:22.264Z,2.55
2022-10-28T21:02:09.600Z,3.20
2022-10-28T21:04:55.475Z,2.53
2022-10-28T21:07:40.824Z,2.63
2022-10-28T21:10:26.295Z,2.55
2022-10-28T21:13:11.846Z,2.58
2022-10-28T21:15:57.928Z,2.63
2022-10-28T21:18:43.670Z,2.50
2022-10-28T21:21:29.941Z,2.15
2022-10-28T21:24:15.164Z,2.75
2022-10-28T21:27:00.555Z,2.47
2022-10-28T21:29:45.778Z,2.70
2022-10-28T21:32:31.066Z,2.90
2022-10-28T21:35:16.659Z,2.60
2022-10-28T21:38:02.380Z,2.45
2022-10-28T21:40:47.804Z,3.13
2022-10-28T21:43:35.923Z,2.80
2022-10-28T21:46:23.044Z,2.50
2022-10-28T21:49:08.732Z,2.75
2022-10-28T21:51:53.938Z,2.42
2022-10-28T21:54:39.469Z,3.47
2022-10-28T21:57:30.218Z,2.45
2022-10-28T22:00:16.073Z,3.35
2022-10-28T22:03:01.702Z,3.38
2022-10-28T22:05:50.860Z,3.13
2022-10-28T22:08:36.677Z,3.05
2022-10-28T22:11:23.975Z,4.13
2022-10-28T22:14:09.844Z,3.47
2022-10-28T22:16:55.484Z,5.88
2022-10-28T22:19:40.939Z,7.68
2022-10-28T22:22:26.289Z,15.35
2022-10-28T22:25:11.587Z,28.85
2022-10-28T22:27:57.170Z,20.25
2022-10-28T22:30:42.454Z,13.10
2022-10-28T22:33:27.769Z,8.48
2022-10-28T22:36:15.997Z,6.60
2022-10-28T22:39:01.237Z,5.72
2022-10-28T22:41:46.668Z,5.82
2022-10-28T22:44:32.031Z,4.82
2022-10-28T22:47:17.669Z,5.10
2022-10-28T22:50:03.628Z,4.18
2022-10-28T22:52:48.908Z,4.75
2022-10-28T22:55:34.248Z,5.50
2022-10-28T22:58:20.236Z,4.35
2022-10-28T23:01:07.090Z,4.28
2022-10-28T23:03:53.863Z,4.88
2022-10-28T23:06:39.466Z,3.00
2022-10-28T23:09:24.702Z,3.95
2022-10-28T23:12:10.167Z,4.07
2022-10-28T23:14:55.974Z,4.20
2022-10-28T23:17:41.491Z,3.80
2022-10-28T23:20:26.708Z,3.42
2022-10-28T23:23:12.133Z,3.53
2022-10-28T23:25:57.510Z,3.78
2022-10-28T23:28:43.106Z,3.40
2022-10-28T23:31:29.018Z,2.42
2022-10-28T23:34:14.494Z,2.95
2022-10-28T23:36:59.813Z,3.28
2022-10-28T23:39:45.332Z,2.90
2022-10-28T23:42:30.682Z,2.63
2022-10-28T23:45:16.073Z,3.08
2022-10-28T23:48:01.513Z,2.28
2022-10-28T23:50:46.923Z,2.33
2022-10-28T23:53:32.527Z,3.00
2022-10-28T23:56:17.841Z,2.53
2022-10-28T23:59:03.285Z,3.80
